Airfield :
LOGIN :

Register | Disclaimer

   EN    FR    IT 

 










Legend :    VFR   Marginal VFR   IFR   Intensive IFR   Very Intensive IFR
Visi :
Ceiling :
>= 8 km
>= 3000ft
5 to 8 km
1000 to 3000 ft
1500m to 5 km
500 to 1000 ft
800 to 1500m
200 to 500 ft
< 800m
< 200 ft
Symbols :   Thunderstorms  Fog  Heavy snow  Heavy precipitations  Wind > 20 kt
SIGMETs :     Misc.  Thunderstorms  Icing  Turbulence  Mountain Waves  Volcanic Ashes







- Airport Elevation : 401 ft
- IATA code : LEQ
- Download approach charts


EGHC - Land's End

CURRENT METAR :
  • 231350Z 04018KT 9999 FEW012 SCT018 07/05 Q1013

EXPIRED METARs :
  • 231320Z 04020G30KT 9999 -SHRA SCT015 SCT025 07/05 Q1013-
  • 231250Z 04019KT 9999 -SHRA SCT015 SCT025 06/05 Q1013
  • 231220Z 03022KT 9999 -SHRA SCT015 SCT025 07/05 Q1013
  • 231150Z 02021KT 9999 SCT015 SCT025 07/05 Q1013
  • 231120Z 02020KT 9999 FEW015 SCT025 08/04 Q1012

TAF TAF EGHC
Valid from the 23 at 12:00 until the 23 at 18:00 UTC


231108Z 2312/2318 04018G28KT 9999 FEW030
PROB30
TEMPO 2313/2318 04021G38KT 8000 RA BKN012
No reported NOTAMs for that airfield.
2 SIGMETs reported for the London FIR (EGTT) :
 
Severe turbulence
EGTT SIGMET 03 VALID 231215/231615 EGRR
EGTT LONDON FIR SEV TURB FCST S OF LINE N4931 W00800 - N5040 E00127 SFC/FL060 MOV N 05KT INTSF=
Severe turbulence
EGTT SIGMET 02 VALID 231215/231615 EGRR
EGTT LONDON FIR SEV TURB FCST NW OF LINE N5500 E00133 - N5237 W00530 FL240/330 MOV SE 05KT NC=



MET'MAP, your aeronautical weather chart ! - Copyright ORBIFLY December 2007 - Disclaimer

ORBIFLY MET'MAP TEAM :

Programming & Development : Alexandra Zaïnal
Concept & Development : Baudouin d'Aumeries
Co-Development & Prog : Marc-Olivier Méhu
Technical & hardware support : Manuel Goepfert

Contact : metmap@orbifly.com




SOURCES & CREDITS :

   NOAA